Time;durP1;ratioP1;P1;durP2;ratioP2;P2;SDS_P1;SDS_P2;PMS_P1;PMS_P2;Temp;Humidity;BMP_temperature;BMP_pressure;BME280_temperature;BME280_humidity;BME280_pressure;Samples;Min_cycle;Max_cycle;Signal;HPM_P1;HPM_P2
2022/04/20 00:00:30;;;;;;;;;;;;;;;7.79;48.38;96541.34;30001;956;1898;-66
2022/04/20 00:01:01;;;;;;;;;;;;;;;7.78;48.44;96545.12;30001;982;1876;-66
2022/04/20 00:01:32;;;;;;;;;;;;;;;7.74;49.83;96544.88;30001;982;1877;-66
2022/04/20 00:02:03;;;;;;;;;;;;;;;7.71;49.32;96551.66;30001;982;1877;-66
2022/04/20 00:02:34;;;;;;;;;;;;;;;7.69;48.99;96536.81;30001;982;1877;-67
2022/04/20 00:03:05;;;;;;;;;;;;;;;7.68;49.58;96546.81;30001;983;1876;-66
2022/04/20 00:03:36;;;;;;;;;;;;;;;7.64;50.04;96544.94;30001;983;1876;-67
2022/04/20 00:04:10;;;;;;;;;;;;;;;7.60;50.00;96543.94;30001;983;1876;-67
2022/04/20 00:04:44;;;;;;;;;;;;;;;7.57;50.51;96549.88;30001;983;1876;-67
2022/04/20 00:05:15;;;;;;;;;;;;;;;7.56;49.74;96554.47;30001;983;1854;-65
2022/04/20 00:05:46;;;;;;;;;;;;;;;7.56;49.63;96549.09;30001;983;1872;-67
2022/04/20 00:06:17;;;;;;;;;;;;;;;7.60;49.64;96543.94;30002;796;1013;-66
2022/04/20 00:06:48;;;;;;;;;;;;;;;7.63;49.50;96543.34;30001;983;1876;-66
2022/04/20 00:07:19;;;;;;;;;;;;;;;7.62;50.03;96542.53;30001;982;1876;-65
2022/04/20 00:07:50;;;;;;;;;;;;;;;7.62;49.61;96542.53;30001;982;1876;-68
2022/04/20 00:08:21;;;;;;;;;;;;;;;7.62;50.17;96547.16;30001;982;1876;-66
2022/04/20 00:08:53;;;;;;;;;;;;;;;7.61;49.64;96537.44;30001;982;1855;-66
2022/04/20 00:09:24;;;;;;;;;;;;;;;7.62;49.59;96545.22;30001;982;1872;-67
2022/04/20 00:09:55;;;;;;;;;;;;;;;7.62;49.51;96541.75;30001;983;1876;-66
2022/04/20 00:10:28;;;;;;;;;;;;;;;7.65;49.43;96535.75;30001;983;1876;-63
2022/04/20 00:10:59;;;;;;;;;;;;;;;7.68;49.52;96536.00;30001;983;1876;-66
2022/04/20 00:11:30;;;;;;;;;;;;;;;7.70;49.55;96541.13;30001;983;1876;-65
2022/04/20 00:12:01;;;;;;;;;;;;;;;7.70;49.61;96543.81;30001;983;1876;-66
2022/04/20 00:12:31;;;;;;;;;;;;;;;7.65;50.33;96535.75;30001;983;1876;-65
2022/04/20 00:13:02;;;;;;;;;;;;;;;7.56;51.12;96540.97;30001;983;1782;-66
2022/04/20 00:13:33;;;;;;;;;;;;;;;7.53;50.79;96543.44;30001;983;1854;-66
2022/04/20 00:14:09;;;;;;;;;;;;;;;7.56;50.42;96542.88;30001;983;1872;-62
2022/04/20 00:14:44;;;;;;;;;;;;;;;7.57;49.97;96539.09;30001;982;1877;-66
2022/04/20 00:15:18;;;;;;;;;;;;;;;7.58;50.33;96535.31;30001;982;1876;-66
2022/04/20 00:15:52;;;;;;;;;;;;;;;7.56;50.41;96542.88;30001;982;1876;-67
2022/04/20 00:16:25;;;;;;;;;;;;;;;7.52;51.44;96547.22;30001;982;1877;-62
2022/04/20 00:16:56;;;;;;;;;;;;;;;7.49;51.20;96543.19;30001;982;1877;-67
2022/04/20 00:17:27;;;;;;;;;;;;;;;7.48;50.62;96538.06;30001;983;1876;-65
2022/04/20 00:18:00;;;;;;;;;;;;;;;7.48;50.53;96540.78;30001;983;1876;-63
2022/04/20 00:18:31;;;;;;;;;;;;;;;7.48;50.72;96544.28;30001;983;1876;-63
2022/04/20 00:19:02;;;;;;;;;;;;;;;7.50;51.38;96544.00;30001;983;1854;-62
2022/04/20 00:19:34;;;;;;;;;;;;;;;7.48;50.83;96540.78;30001;983;1850;-63
2022/04/20 00:20:06;;;;;;;;;;;;;;;7.47;51.24;96539.16;30001;983;1876;-61
2022/04/20 00:20:41;;;;;;;;;;;;;;;7.48;50.88;96543.47;30001;983;1876;-64
2022/04/20 00:21:11;;;;;;;;;;;;;;;7.48;51.10;96538.88;30001;983;1854;-61
2022/04/20 00:21:42;;;;;;;;;;;;;;;7.49;50.67;96536.97;30001;983;1850;-63
2022/04/20 00:22:13;;;;;;;;;;;;;;;7.50;51.20;96539.41;30001;982;1876;-63
2022/04/20 00:22:44;;;;;;;;;;;;;;;7.47;51.54;96544.56;30001;982;1876;-65
2022/04/20 00:23:15;;;;;;;;;;;;;;;7.44;51.35;96539.72;30001;982;1876;-62
2022/04/20 00:23:46;;;;;;;;;;;;;;;7.39;52.71;96544.06;30001;982;1876;-64
2022/04/20 00:24:17;;;;;;;;;;;;;;;7.36;52.66;96550.03;30001;982;1877;-62
2022/04/20 00:24:48;;;;;;;;;;;;;;;7.33;52.56;96539.78;30001;971;1896;-63
2022/04/20 00:25:19;;;;;;;;;;;;;;;7.30;52.19;96540.34;30001;983;1876;-63
2022/04/20 00:25:49;;;;;;;;;;;;;;;7.31;51.88;96541.94;30001;983;1854;-63
2022/04/20 00:26:20;;;;;;;;;;;;;;;7.34;51.69;96541.41;30001;983;1871;-62
2022/04/20 00:26:51;;;;;;;;;;;;;;;7.35;51.60;96537.59;30001;983;1876;-62
2022/04/20 00:27:22;;;;;;;;;;;;;;;7.36;51.42;96533.03;30001;983;1876;-63
2022/04/20 00:27:53;;;;;;;;;;;;;;;7.36;51.56;96544.62;30001;983;1876;-63
2022/04/20 00:28:23;;;;;;;;;;;;;;;7.32;51.81;96538.16;30001;983;1876;-61
2022/04/20 00:28:54;;;;;;;;;;;;;;;7.30;52.69;96540.34;30001;983;1876;-63
2022/04/20 00:29:26;;;;;;;;;;;;;;;7.28;52.00;96533.59;30001;983;1876;-63
2022/04/20 00:29:57;;;;;;;;;;;;;;;7.27;51.77;96534.72;30001;982;1876;-63
2022/04/20 00:30:27;;;;;;;;;;;;;;;7.26;52.11;96531.22;30001;982;1854;-65
2022/04/20 00:30:58;;;;;;;;;;;;;;;7.26;52.75;96539.31;30001;982;1872;-63
2022/04/20 00:31:29;;;;;;;;;;;;;;;7.24;52.77;96541.47;30001;982;1877;-63
2022/04/20 00:32:00;;;;;;;;;;;;;;;7.25;52.25;96542.28;30001;982;1777;-64
2022/04/20 00:32:31;;;;;;;;;;;;;;;7.26;52.41;96539.31;30001;983;1876;-63
2022/04/20 00:33:01;;;;;;;;;;;;;;;7.27;51.93;96538.22;30001;983;1876;-64
2022/04/20 00:33:32;;;;;;;;;;;;;;;7.28;52.12;96539.00;30001;983;1876;-62
2022/04/20 00:34:03;;;;;;;;;;;;;;;7.28;52.38;96545.22;30001;983;1876;-63
2022/04/20 00:34:34;;;;;;;;;;;;;;;7.27;52.49;96546.31;30001;983;1876;-62
2022/04/20 00:35:10;;;;;;;;;;;;;;;7.26;53.10;96550.09;30001;983;1876;-63
2022/04/20 00:35:43;;;;;;;;;;;;;;;7.20;53.57;96545.81;30001;983;1854;-62
2022/04/20 00:36:13;;;;;;;;;;;;;;;7.17;53.57;96546.38;30001;983;1850;-63
2022/04/20 00:36:45;;;;;;;;;;;;;;;7.14;54.07;96552.31;30001;983;1876;-62
2022/04/20 00:37:19;;;;;;;;;;;;;;;7.12;53.56;96551.00;30001;983;1854;-63
2022/04/20 00:37:49;;;;;;;;;;;;;;;7.11;53.42;96542.09;30001;982;1872;-62
2022/04/20 00:38:21;;;;;;;;;;;;;;;7.12;53.13;96543.72;30001;982;1877;-64
2022/04/20 00:38:51;;;;;;;;;;;;;;;7.13;53.02;96548.03;30001;982;1877;-62
2022/04/20 00:39:23;;;;;;;;;;;;;;;7.14;53.18;96544.25;30001;960;1802;-65
2022/04/20 00:39:54;;;;;;;;;;;;;;;7.14;53.54;96541.53;30001;983;1876;-62
2022/04/20 00:40:25;;;;;;;;;;;;;;;7.13;52.99;96544.50;30001;983;1876;-63
2022/04/20 00:40:56;;;;;;;;;;;;;;;7.16;52.93;96543.97;30001;983;1876;-63
2022/04/20 00:41:28;;;;;;;;;;;;;;;7.17;52.79;96540.97;30001;983;1854;-64
2022/04/20 00:41:59;;;;;;;;;;;;;;;7.18;53.09;96545.28;30001;983;1870;-62
2022/04/20 00:42:31;;;;;;;;;;;;;;;7.20;53.49;96547.72;30001;983;1876;-62
2022/04/20 00:43:05;;;;;;;;;;;;;;;7.17;53.48;96540.97;30001;983;1876;-63
2022/04/20 00:43:37;;;;;;;;;;;;;;;7.13;53.38;96544.50;30001;983;1876;-62
2022/04/20 00:44:09;;;;;;;;;;;;;;;7.08;52.88;96534.56;30001;982;1876;-62
2022/04/20 00:44:40;;;;;;;;;;;;;;;7.05;53.79;96546.72;30001;982;1876;-62
2022/04/20 00:45:12;;;;;;;;;;;;;;;7.03;54.14;96546.19;30001;982;1876;-64
2022/04/20 00:45:43;;;;;;;;;;;;;;;7.01;54.07;96539.44;30001;982;1877;-62
2022/04/20 00:46:19;;;;;;;;;;;;;;;7.00;53.92;96551.31;30001;982;1877;-61
2022/04/20 00:46:50;;;;;;;;;;;;;;;7.00;53.76;96543.22;30001;982;1855;-64
2022/04/20 00:47:21;;;;;;;;;;;;;;;7.04;53.40;96544.28;30001;986;1871;-62
2022/04/20 00:47:54;;;;;;;;;;;;;;;7.05;53.28;96544.00;30001;983;1876;-62
2022/04/20 00:48:25;;;;;;;;;;;;;;;7.07;53.12;96546.44;30001;983;1876;-67
2022/04/20 00:48:56;;;;;;;;;;;;;;;7.06;52.77;96544.81;30001;983;1854;-62
2022/04/20 00:49:29;;;;;;;;;;;;;;;7.06;53.07;96542.13;30001;983;1872;-63
2022/04/20 00:50:00;;;;;;;;;;;;;;;7.06;53.19;96547.50;30001;983;1876;-64
2022/04/20 00:50:31;;;;;;;;;;;;;;;7.07;53.80;96546.44;30001;983;1876;-63
2022/04/20 00:51:01;;;;;;;;;;;;;;;7.08;53.38;96542.66;30001;983;1876;-62
2022/04/20 00:51:32;;;;;;;;;;;;;;;7.07;53.87;96541.03;30001;982;1854;-65
2022/04/20 00:52:05;;;;;;;;;;;;;;;7.06;53.55;96539.41;30001;982;1872;-63
2022/04/20 00:52:37;;;;;;;;;;;;;;;7.09;53.20;96544.25;30001;982;1876;-64
2022/04/20 00:53:09;;;;;;;;;;;;;;;7.10;53.21;96545.88;30001;982;1876;-63
2022/04/20 00:53:40;;;;;;;;;;;;;;;7.10;52.92;96543.19;30001;985;1877;-63
2022/04/20 00:54:11;;;;;;;;;;;;;;;7.10;52.99;96543.19;30001;982;1877;-62
2022/04/20 00:54:44;;;;;;;;;;;;;;;7.11;52.94;96546.69;30001;982;1877;-64
2022/04/20 00:55:15;;;;;;;;;;;;;;;7.11;52.95;96541.28;30001;983;1876;-62
2022/04/20 00:55:46;;;;;;;;;;;;;;;7.10;53.17;96542.38;30001;986;1876;-63
2022/04/20 00:56:16;;;;;;;;;;;;;;;7.07;54.10;96549.94;30001;983;1876;-64
2022/04/20 00:56:47;;;;;;;;;;;;;;;7.04;54.04;96547.78;30001;983;1854;-63
2022/04/20 00:57:18;;;;;;;;;;;;;;;7.02;53.56;96546.47;30001;983;1872;-64
2022/04/20 00:57:49;;;;;;;;;;;;;;;7.00;54.21;96541.34;30001;983;1876;-62
2022/04/20 00:58:20;;;;;;;;;;;;;;;6.98;54.71;96553.50;30001;968;1888;-63
2022/04/20 00:58:51;;;;;;;;;;;;;;;6.94;54.27;96550.53;30001;983;1876;-63
2022/04/20 00:59:23;;;;;;;;;;;;;;;6.94;53.89;96541.63;30001;982;1855;-61
2022/04/20 00:59:56;;;;;;;;;;;;;;;6.91;54.43;96545.72;30001;982;1850;-63
2022/04/20 01:00:27;;;;;;;;;;;;;;;6.88;54.39;96542.78;30001;982;1877;-63
2022/04/20 01:00:58;;;;;;;;;;;;;;;6.87;54.03;96541.16;30001;982;1876;-63
2022/04/20 01:01:30;;;;;;;;;;;;;;;6.89;54.00;96539.00;30001;982;1876;-62
2022/04/20 01:02:01;;;;;;;;;;;;;;;6.90;53.87;96543.31;30001;982;1877;-64
2022/04/20 01:02:32;;;;;;;;;;;;;;;6.89;54.07;96539.00;30001;983;1876;-64
2022/04/20 01:03:03;;;;;;;;;;;;;;;6.86;54.20;96543.03;30001;983;1876;-62
2022/04/20 01:03:34;;;;;;;;;;;;;;;6.84;54.52;96541.72;30001;983;1876;-65
2022/04/20 01:04:07;;;;;;;;;;;;;;;6.81;54.96;96543.06;30001;983;1876;-63
2022/04/20 01:04:38;;;;;;;;;;;;;;;6.79;55.35;96549.81;30001;983;1876;-62
2022/04/20 01:05:09;;;;;;;;;;;;;;;6.75;55.58;96540.66;30001;983;1854;-64
2022/04/20 01:05:40;;;;;;;;;;;;;;;6.72;55.17;96540.13;30001;983;1872;-65
2022/04/20 01:06:11;;;;;;;;;;;;;;;6.71;55.00;96543.91;30001;983;1876;-64
2022/04/20 01:06:42;;;;;;;;;;;;;;;6.71;55.18;96543.09;30001;982;1876;-62
2022/04/20 01:07:14;;;;;;;;;;;;;;;6.68;55.47;96544.47;30001;982;1876;-63
2022/04/20 01:07:45;;;;;;;;;;;;;;;6.64;55.59;96538.00;30001;982;1876;-62
2022/04/20 01:08:15;;;;;;;;;;;;;;;6.64;54.89;96542.59;30001;982;1876;-63
2022/04/20 01:08:46;;;;;;;;;;;;;;;6.64;54.77;96534.50;30001;982;1855;-64
2022/04/20 01:09:17;;;;;;;;;;;;;;;6.63;55.05;96541.78;30001;982;1872;-64
2022/04/20 01:09:49;;;;;;;;;;;;;;;6.61;55.89;96543.94;30001;982;1877;-61
2022/04/20 01:10:19;;;;;;;;;;;;;;;6.58;56.46;96549.91;30001;983;1876;-63
2022/04/20 01:10:50;;;;;;;;;;;;;;;6.55;55.87;96547.78;30001;983;1876;-64
2022/04/20 01:11:22;;;;;;;;;;;;;;;6.52;55.60;96545.63;30001;983;1876;-63
2022/04/20 01:11:54;;;;;;;;;;;;;;;6.51;55.50;96541.31;30001;983;1876;-63
2022/04/20 01:12:25;;;;;;;;;;;;;;;6.52;55.56;96542.94;30001;983;1854;-63
2022/04/20 01:12:59;;;;;;;;;;;;;;;6.54;55.38;96543.47;30001;983;1872;-63
2022/04/20 01:13:31;;;;;;;;;;;;;;;6.52;55.38;96540.22;30001;983;1876;-64
2022/04/20 01:14:02;;;;;;;;;;;;;;;6.51;54.90;96538.63;30001;983;1876;-64
2022/04/20 01:14:34;;;;;;;;;;;;;;;6.51;55.07;96538.63;30001;982;1876;-64
2022/04/20 01:15:05;;;;;;;;;;;;;;;6.50;54.88;96537.00;30001;982;1877;-61
2022/04/20 01:15:36;;;;;;;;;;;;;;;6.51;55.76;96544.00;30001;982;1876;-62
2022/04/20 01:16:08;;;;;;;;;;;;;;;6.51;55.26;96544.00;30001;982;1877;-65
2022/04/20 01:16:38;;;;;;;;;;;;;;;6.50;55.67;96536.19;30001;982;1877;-63
2022/04/20 01:17:09;;;;;;;;;;;;;;;6.48;55.75;96544.56;30001;983;1876;-65
2022/04/20 01:17:40;;;;;;;;;;;;;;;6.47;55.13;96542.94;30001;983;1854;-65
2022/04/20 01:18:15;;;;;;;;;;;;;;;6.48;55.56;96543.75;30001;983;1871;-64
2022/04/20 01:18:45;;;;;;;;;;;;;;;6.48;55.26;96539.16;30001;983;1876;-62
2022/04/20 01:19:16;;;;;;;;;;;;;;;6.48;55.36;96538.34;30001;983;1876;-65
2022/04/20 01:19:47;;;;;;;;;;;;;;;6.47;55.65;96540.25;30001;983;1854;-62
2022/04/20 01:20:18;;;;;;;;;;;;;;;6.46;55.42;96535.94;30001;983;1872;-65
2022/04/20 01:20:49;;;;;;;;;;;;;;;6.45;55.33;96534.31;30001;983;1876;-64
2022/04/20 01:21:20;;;;;;;;;;;;;;;6.46;55.51;96535.94;30001;983;1876;-63
2022/04/20 01:21:50;;;;;;;;;;;;;;;6.44;56.86;96548.87;30001;982;1876;-62
2022/04/20 01:22:22;;;;;;;;;;;;;;;6.42;56.83;96539.44;30001;982;1876;-60
2022/04/20 01:22:52;;;;;;;;;;;;;;;6.41;56.72;96543.22;30001;982;1876;-62
2022/04/20 01:23:23;;;;;;;;;;;;;;;6.39;56.33;96543.50;30001;982;1877;-65
2022/04/20 01:23:58;;;;;;;;;;;;;;;6.42;56.04;96537.56;30001;982;1776;-63
2022/04/20 01:24:30;;;;;;;;;;;;;;;6.41;56.81;96538.66;30001;983;1746;-64
2022/04/20 01:25:01;;;;;;;;;;;;;;;6.41;56.09;96543.22;30001;983;1871;-62
2022/04/20 01:25:32;;;;;;;;;;;;;;;6.42;56.49;96551.03;30001;983;1876;-64
2022/04/20 01:26:07;;;;;;;;;;;;;;;6.40;55.87;96537.03;30001;983;1876;-64
2022/04/20 01:26:40;;;;;;;;;;;;;;;6.39;55.95;96538.09;30001;983;1876;-62
2022/04/20 01:27:11;;;;;;;;;;;;;;;6.40;55.75;96534.34;30001;983;1775;-62
2022/04/20 01:27:42;;;;;;;;;;;;;;;6.40;55.64;96537.03;30001;983;1854;-64
2022/04/20 01:28:15;;;;;;;;;;;;;;;6.39;56.27;96536.22;30001;983;1872;-62
2022/04/20 01:28:47;;;;;;;;;;;;;;;6.37;56.31;96534.88;30001;983;1876;-64
2022/04/20 01:29:19;;;;;;;;;;;;;;;6.37;57.00;96534.88;30001;982;1876;-63
2022/04/20 01:29:50;;;;;;;;;;;;;;;6.35;56.86;96540.53;30001;982;1876;-62
2022/04/20 01:30:21;;;;;;;;;;;;;;;6.34;57.22;96538.13;30001;982;1876;-64
2022/04/20 01:30:52;;;;;;;;;;;;;;;6.32;57.58;96535.69;30001;982;1876;-62
2022/04/20 01:31:23;;;;;;;;;;;;;;;6.31;57.08;96535.97;30001;982;1877;-62
2022/04/20 01:31:54;;;;;;;;;;;;;;;6.29;57.23;96535.44;30001;983;1876;-63
2022/04/20 01:32:25;;;;;;;;;;;;;;;6.28;57.63;96531.13;30001;983;1876;-62
2022/04/20 01:32:56;;;;;;;;;;;;;;;6.28;57.71;96539.22;30001;983;1854;-64
2022/04/20 01:33:26;;;;;;;;;;;;;;;6.24;58.48;96538.13;30001;983;1871;-63
2022/04/20 01:33:57;;;;;;;;;;;;;;;6.21;58.17;96534.13;30001;983;1876;-62
2022/04/20 01:34:29;;;;;;;;;;;;;;;6.19;57.83;96541.69;30001;983;1876;-64
2022/04/20 01:35:00;;;;;;;;;;;;;;;6.20;57.20;96537.09;30001;983;1876;-63
2022/04/20 01:35:31;;;;;;;;;;;;;;;6.20;56.79;96535.22;30001;983;1876;-63
2022/04/20 01:36:02;;;;;;;;;;;;;;;6.23;56.47;96536.56;30001;983;1854;-63
2022/04/20 01:36:32;;;;;;;;;;;;;;;6.23;56.34;96536.56;30001;983;1872;-63
2022/04/20 01:37:04;;;;;;;;;;;;;;;6.24;56.39;96533.56;30001;982;1876;-61
2022/04/20 01:37:35;;;;;;;;;;;;;;;6.24;56.11;96532.75;30001;982;1876;-65
2022/04/20 01:38:06;;;;;;;;;;;;;;;6.27;55.78;96533.00;30001;982;1876;-66
2022/04/20 01:38:38;;;;;;;;;;;;;;;6.32;55.72;96537.59;30001;982;1877;-63
2022/04/20 01:39:08;;;;;;;;;;;;;;;6.31;56.21;96539.47;30001;982;1877;-63
2022/04/20 01:39:39;;;;;;;;;;;;;;;6.28;55.87;96533.81;30001;983;1876;-65
2022/04/20 01:40:10;;;;;;;;;;;;;;;6.27;55.69;96533.00;30001;983;1854;-62
2022/04/20 01:40:41;;;;;;;;;;;;;;;6.28;55.53;96528.44;30001;983;1871;-63
2022/04/20 01:41:12;;;;;;;;;;;;;;;6.28;55.53;96533.81;30001;983;1876;-62
2022/04/20 01:41:43;;;;;;;;;;;;;;;6.28;56.40;96533.81;30001;983;1876;-63
2022/04/20 01:42:14;;;;;;;;;;;;;;;6.26;56.42;96538.69;30001;983;1876;-65
2022/04/20 01:42:45;;;;;;;;;;;;;;;6.24;56.88;96543.53;30001;983;1876;-63
2022/04/20 01:43:16;;;;;;;;;;;;;;;6.20;57.21;96537.09;30001;983;1876;-65
2022/04/20 01:43:47;;;;;;;;;;;;;;;6.18;57.83;96539.25;30001;983;1855;-64
2022/04/20 01:44:18;;;;;;;;;;;;;;;6.16;57.24;96533.34;30001;983;1872;-63
2022/04/20 01:44:48;;;;;;;;;;;;;;;6.16;56.84;96530.66;30001;982;1876;-62
2022/04/20 01:45:19;;;;;;;;;;;;;;;6.17;56.56;96534.94;30001;982;1877;-65
2022/04/20 01:45:50;;;;;;;;;;;;;;;6.18;56.51;96539.25;30001;982;1855;-63
2022/04/20 01:46:21;;;;;;;;;;;;;;;6.18;56.75;96529.28;30001;982;1872;-63
2022/04/20 01:46:52;;;;;;;;;;;;;;;6.17;57.17;96538.44;30001;982;1877;-63
2022/04/20 01:47:26;;;;;;;;;;;;;;;6.17;56.69;96535.75;30001;983;1854;-62
2022/04/20 01:47:57;;;;;;;;;;;;;;;6.17;56.53;96532.25;30001;983;1871;-64
2022/04/20 01:48:28;;;;;;;;;;;;;;;6.16;56.53;96539.53;30001;983;1876;-63
2022/04/20 01:49:02;;;;;;;;;;;;;;;6.17;56.16;96540.34;30001;983;1876;-65
2022/04/20 01:49:33;;;;;;;;;;;;;;;6.17;57.00;96532.25;30001;983;1876;-66
2022/04/20 01:50:05;;;;;;;;;;;;;;;6.17;56.58;96534.94;30001;983;1876;-65
2022/04/20 01:51:46;;;;;;;;;;;;;;;6.16;56.51;96542.22;30001;983;1876;-66
2022/04/20 01:52:19;;;;;;;;;;;;;;;6.15;56.37;96529.84;30001;982;1877;-62
2022/04/20 01:52:50;;;;;;;;;;;;;;;6.16;57.10;96541.41;30001;982;1855;-63
2022/04/20 01:53:21;;;;;;;;;;;;;;;6.14;57.85;96539.00;30001;982;1872;-62
2022/04/20 01:53:53;;;;;;;;;;;;;;;6.12;57.86;96534.97;30001;982;1877;-63
2022/04/20 01:54:24;;;;;;;;;;;;;;;6.09;57.93;96538.19;30001;982;1877;-62
2022/04/20 01:54:55;;;;;;;;;;;;;;;6.07;57.76;96532.28;30001;983;1876;-61
2022/04/20 01:55:26;;;;;;;;;;;;;;;6.04;57.50;96536.31;30001;983;1876;-67
2022/04/20 01:55:59;;;;;;;;;;;;;;;6.04;57.43;96539.81;30001;983;1876;-64
2022/04/20 01:56:30;;;;;;;;;;;;;;;6.03;56.99;96532.81;30001;983;1876;-63
2022/04/20 01:57:05;;;;;;;;;;;;;;;6.03;58.32;96538.19;30001;983;1854;-63
2022/04/20 01:57:36;;;;;;;;;;;;;;;6.00;57.90;96532.53;30001;983;1872;-64
2022/04/20 01:58:08;;;;;;;;;;;;;;;5.96;58.19;96531.47;30001;983;1876;-63
2022/04/20 01:58:39;;;;;;;;;;;;;;;5.95;57.68;96538.75;30001;982;1876;-64
2022/04/20 01:59:10;;;;;;;;;;;;;;;5.95;57.70;96536.06;30001;982;1876;-64
2022/04/20 01:59:41;;;;;;;;;;;;;;;5.94;57.66;96534.44;30001;982;1876;-62
2022/04/20 02:00:13;;;;;;;;;;;;;;;5.93;57.72;96537.41;30001;982;1855;-67
2022/04/20 02:00:43;;;;;;;;;;;;;;;5.92;58.08;96535.78;30001;982;1872;-64
2022/04/20 02:02:52;;;;;;;;;;;;;;;5.91;58.08;96539.56;30001;983;1876;-62
2022/04/20 02:03:26;;;;;;;;;;;;;;;5.89;57.48;96537.12;30001;986;1877;-63
2022/04/20 02:03:57;;;;;;;;;;;;;;;5.88;58.08;96540.91;30001;983;1876;-63
2022/04/20 02:04:28;;;;;;;;;;;;;;;5.87;58.00;96533.91;30001;983;1876;-62
2022/04/20 02:04:59;;;;;;;;;;;;;;;5.87;58.50;96539.28;30001;983;1854;-64
2022/04/20 02:05:30;;;;;;;;;;;;;;;5.86;58.25;96540.37;30001;983;1872;-64
2022/04/20 02:06:01;;;;;;;;;;;;;;;5.86;58.26;96542.25;30001;983;1876;-65
2022/04/20 02:06:32;;;;;;;;;;;;;;;5.84;59.42;96533.63;30001;982;1876;-61
2022/04/20 02:07:04;;;;;;;;;;;;;;;5.80;60.13;96543.31;30001;982;1876;-66
2022/04/20 02:07:35;;;;;;;;;;;;;;;5.75;60.09;96541.44;30001;982;1855;-63
2022/04/20 02:08:09;;;;;;;;;;;;;;;5.71;59.46;96535.78;30001;982;1850;-61
2022/04/20 02:08:40;;;;;;;;;;;;;;;5.71;59.13;96535.78;30001;982;1877;-62
2022/04/20 02:09:11;;;;;;;;;;;;;;;5.71;59.58;96534.97;30001;982;1877;-65
2022/04/20 02:09:43;;;;;;;;;;;;;;;5.71;59.33;96535.78;30001;983;1876;-66
2022/04/20 02:10:14;;;;;;;;;;;;;;;5.69;60.05;96539.81;30001;983;1854;-66
2022/04/20 02:10:45;;;;;;;;;;;;;;;5.64;60.26;96540.63;30001;983;1871;-64
2022/04/20 02:11:16;;;;;;;;;;;;;;;5.62;59.34;96542.78;30001;983;1876;-66
2022/04/20 02:11:47;;;;;;;;;;;;;;;5.63;59.31;96538.22;30001;983;1876;-65
2022/04/20 02:12:17;;;;;;;;;;;;;;;5.63;59.47;96538.22;30001;983;1876;-66
2022/04/20 02:12:48;;;;;;;;;;;;;;;5.62;59.50;96542.78;30001;983;1854;-63
2022/04/20 02:13:20;;;;;;;;;;;;;;;5.62;59.49;96547.34;30001;983;1850;-65
2022/04/20 02:13:52;;;;;;;;;;;;;;;5.63;59.41;96543.59;30001;982;1876;-62
2022/04/20 02:14:23;;;;;;;;;;;;;;;5.60;60.63;96552.19;30001;982;1876;-64
2022/04/20 02:14:54;;;;;;;;;;;;;;;5.58;60.83;96546.28;30001;982;1876;-66
2022/04/20 02:15:25;;;;;;;;;;;;;;;5.56;59.94;96546.53;30001;982;1877;-66
2022/04/20 02:15:56;;;;;;;;;;;;;;;5.56;60.38;96553.81;30001;982;1855;-62
2022/04/20 02:16:27;;;;;;;;;;;;;;;5.54;59.88;96546.03;30001;982;1872;-63
2022/04/20 02:16:59;;;;;;;;;;;;;;;5.54;60.61;96542.53;30001;982;1877;-63
2022/04/20 02:17:34;;;;;;;;;;;;;;;5.51;60.67;96557.34;30001;983;1854;-61
2022/04/20 02:18:05;;;;;;;;;;;;;;;5.51;59.83;96546.56;30001;983;1850;-63
2022/04/20 02:18:36;;;;;;;;;;;;;;;5.52;60.00;96550.06;30001;983;1876;-63
2022/04/20 02:19:10;;;;;;;;;;;;;;;5.52;59.84;96547.38;30001;983;1876;-62
2022/04/20 02:19:41;;;;;;;;;;;;;;;5.50;60.73;96539.56;30001;983;1876;-62
2022/04/20 02:20:12;;;;;;;;;;;;;;;5.49;60.63;96550.59;30001;983;1876;-62
2022/04/20 02:20:46;;;;;;;;;;;;;;;5.46;60.42;96541.19;30001;983;1877;-62
2022/04/20 02:21:17;;;;;;;;;;;;;;;5.45;60.83;96547.63;30001;982;1877;-62
2022/04/20 02:21:48;;;;;;;;;;;;;;;5.44;60.78;96545.22;30001;982;1876;-67
2022/04/20 02:22:21;;;;;;;;;;;;;;;5.44;59.99;96545.22;30001;982;1876;-66
2022/04/20 02:22:51;;;;;;;;;;;;;;;5.43;60.12;96544.41;30001;982;1855;-64
2022/04/20 02:23:23;;;;;;;;;;;;;;;5.45;60.28;96549.53;30001;982;1850;-67
2022/04/20 02:23:56;;;;;;;;;;;;;;;5.44;61.05;96550.59;30001;983;1854;-65
2022/04/20 02:24:27;;;;;;;;;;;;;;;5.41;60.37;96545.75;30001;983;1871;-62
2022/04/20 02:24:59;;;;;;;;;;;;;;;5.42;60.25;96541.97;30001;983;1876;-62
2022/04/20 02:25:30;;;;;;;;;;;;;;;5.45;60.21;96546.84;30001;983;1876;-67
2022/04/20 02:26:01;;;;;;;;;;;;;;;5.45;59.96;96544.12;30001;983;1876;-67
2022/04/20 02:26:33;;;;;;;;;;;;;;;5.45;60.28;96546.84;30001;983;1876;-61
2022/04/20 02:27:04;;;;;;;;;;;;;;;5.45;60.43;96546.84;30001;983;1876;-63
2022/04/20 02:27:35;;;;;;;;;;;;;;;5.43;60.00;96548.97;30001;983;1876;-63
2022/04/20 02:28:06;;;;;;;;;;;;;;;5.39;60.45;96546.81;30001;983;1876;-65
2022/04/20 02:28:37;;;;;;;;;;;;;;;5.38;60.56;96541.72;30001;983;1876;-63
2022/04/20 02:29:09;;;;;;;;;;;;;;;5.36;60.63;96544.66;30001;984;1855;-63
2022/04/20 02:29:40;;;;;;;;;;;;;;;5.35;60.01;96548.44;30001;982;1872;-64
2022/04/20 02:30:11;;;;;;;;;;;;;;;5.35;59.62;96540.34;30001;982;1876;-63
2022/04/20 02:30:42;;;;;;;;;;;;;;;5.36;59.69;96550.03;30001;982;1877;-63
2022/04/20 02:31:14;;;;;;;;;;;;;;;5.38;61.54;96550.59;30001;985;1872;-62
2022/04/20 02:31:46;;;;;;;;;;;;;;;5.37;60.97;96540.91;30001;983;1876;-62
2022/04/20 02:32:17;;;;;;;;;;;;;;;5.38;60.73;96547.91;30001;983;1876;-62
2022/04/20 02:32:47;;;;;;;;;;;;;;;5.39;60.39;96544.12;30001;983;1876;-63
2022/04/20 02:33:18;;;;;;;;;;;;;;;5.41;60.23;96545.75;30001;983;1876;-62
2022/04/20 02:33:49;;;;;;;;;;;;;;;5.42;60.24;96547.38;30001;983;1786;-63
2022/04/20 02:34:21;;;;;;;;;;;;;;;5.42;60.48;96544.69;30001;983;1854;-62
2022/04/20 02:34:52;;;;;;;;;;;;;;;5.39;61.15;96544.12;30001;983;1872;-63
2022/04/20 02:35:23;;;;;;;;;;;;;;;5.39;60.43;96538.75;30001;983;1876;-62
2022/04/20 02:35:54;;;;;;;;;;;;;;;5.40;60.04;96539.56;30001;983;1876;-63
2022/04/20 02:36:25;;;;;;;;;;;;;;;5.41;60.23;96541.19;30001;982;1876;-61
2022/04/20 02:36:57;;;;;;;;;;;;;;;5.41;60.11;96535.00;30001;982;1876;-62
2022/04/20 02:37:29;;;;;;;;;;;;;;;5.40;61.14;96542.25;30001;982;1876;-64
2022/04/20 02:38:00;;;;;;;;;;;;;;;5.39;60.62;96546.00;30001;982;1876;-62
2022/04/20 02:38:36;;;;;;;;;;;;;;;5.41;60.51;96537.69;30001;982;1855;-62
2022/04/20 02:39:07;;;;;;;;;;;;;;;5.43;59.82;96538.22;30001;983;1872;-63
2022/04/20 02:39:38;;;;;;;;;;;;;;;5.45;59.64;96536.06;30001;983;1876;-64
2022/04/20 02:40:10;;;;;;;;;;;;;;;5.47;59.17;96540.09;30001;983;1876;-63
2022/04/20 02:40:41;;;;;;;;;;;;;;;5.48;58.79;96530.97;30001;983;1854;-62
2022/04/20 02:41:13;;;;;;;;;;;;;;;5.49;58.67;96531.78;30001;983;1872;-63
2022/04/20 02:41:44;;;;;;;;;;;;;;;5.51;58.78;96537.69;30001;983;1876;-63
2022/04/20 02:42:16;;;;;;;;;;;;;;;5.52;58.80;96537.44;30001;983;1876;-63
2022/04/20 02:42:48;;;;;;;;;;;;;;;5.53;59.06;96549.00;30001;983;1876;-62
2022/04/20 02:43:19;;;;;;;;;;;;;;;5.53;58.81;96543.63;30001;983;1876;-63
2022/04/20 02:43:50;;;;;;;;;;;;;;;5.53;59.35;96543.63;30001;983;1876;-62
2022/04/20 02:44:21;;;;;;;;;;;;;;;5.52;59.72;96547.38;30001;982;1854;-64
2022/04/20 02:44:52;;;;;;;;;;;;;;;5.48;59.40;96547.09;30001;982;1872;-64
2022/04/20 02:45:23;;;;;;;;;;;;;;;5.48;59.28;96540.91;30001;982;1855;-63
2022/04/20 02:45:56;;;;;;;;;;;;;;;5.47;59.15;96539.31;30001;982;1872;-64
2022/04/20 02:46:27;;;;;;;;;;;;;;;5.46;59.81;96545.75;30001;983;1876;-63
2022/04/20 02:46:58;;;;;;;;;;;;;;;5.45;60.15;96544.12;30001;983;1876;-63
2022/04/20 02:47:29;;;;;;;;;;;;;;;5.44;59.79;96539.84;30001;983;1876;-64
2022/04/20 02:48:00;;;;;;;;;;;;;;;5.42;59.96;96528.53;30001;983;1876;-63
2022/04/20 02:48:31;;;;;;;;;;;;;;;5.39;60.35;96533.37;30001;983;1876;-62
2022/04/20 02:49:03;;;;;;;;;;;;;;;5.39;59.87;96538.75;30001;983;1876;-63
2022/04/20 02:49:35;;;;;;;;;;;;;;;5.38;59.94;96537.12;30001;983;1876;-63
2022/04/20 02:50:07;;;;;;;;;;;;;;;5.36;60.28;96533.91;30001;983;1854;-62
2022/04/20 02:50:38;;;;;;;;;;;;;;;5.35;60.00;96536.88;30001;983;1872;-63
2022/04/20 02:51:09;;;;;;;;;;;;;;;5.34;60.22;96536.06;30001;983;1876;-63
2022/04/20 02:51:39;;;;;;;;;;;;;;;5.34;59.90;96535.25;30001;982;1876;-63
2022/04/20 02:52:10;;;;;;;;;;;;;;;5.33;60.81;96539.00;30001;982;1876;-63
2022/04/20 02:52:41;;;;;;;;;;;;;;;5.31;60.49;96536.59;30001;982;1877;-63
2022/04/20 02:53:13;;;;;;;;;;;;;;;5.29;60.74;96538.72;30001;982;1876;-62